Time;durP1;ratioP1;P1;durP2;ratioP2;P2;SDS_P1;SDS_P2;PMS_P1;PMS_P2;Temp;Humidity;BMP_temperature;BMP_pressure;BME280_temperature;BME280_humidity;BME280_pressure;Samples;Min_cycle;Max_cycle;Signal;HPM_P1;HPM_P2
2024/01/03 00:01:17;;;;;;;0.30;0.30;;;7.60;99.90;;;;;;5078520;28;20436;-82
2024/01/03 00:03:44;;;;;;;0.30;0.30;;;7.60;99.90;;;;;;5077522;28;20812;-82
2024/01/03 00:06:10;;;;;;;0.30;0.30;;;7.60;99.90;;;;;;5077912;28;20912;-82
2024/01/03 00:08:39;;;;;;;0.30;0.20;;;7.50;99.90;;;;;;5079087;28;20465;-82
2024/01/03 00:11:06;;;;;;;0.50;0.30;;;7.50;99.90;;;;;;5078201;28;20452;-82
2024/01/03 00:14:04;;;;;;;0.73;0.40;;;7.40;99.90;;;;;;5079014;28;20455;-82
2024/01/03 00:16:33;;;;;;;0.30;0.30;;;7.30;99.90;;;;;;5080838;28;20425;-82
2024/01/03 00:19:02;;;;;;;0.40;0.30;;;7.20;99.90;;;;;;5077749;28;20460;-82
2024/01/03 00:21:30;;;;;;;0.30;0.30;;;7.20;99.90;;;;;;5077806;28;20547;-82
2024/01/03 00:23:58;;;;;;;0.47;0.47;;;7.20;99.90;;;;;;5075926;28;20965;-82
2024/01/03 00:26:26;;;;;;;0.50;0.33;;;7.10;99.90;;;;;;5075815;28;20472;-82
2024/01/03 00:28:53;;;;;;;0.30;0.20;;;7.10;99.90;;;;;;5075701;28;20453;-82
2024/01/03 00:31:41;;;;;;;0.30;0.30;;;7.10;99.90;;;;;;5075408;28;20524;-82
2024/01/03 00:34:32;;;;;;;0.30;0.30;;;7.10;99.90;;;;;;5075608;28;20441;-82
2024/01/03 00:36:59;;;;;;;1.67;0.30;;;7.10;99.90;;;;;;5075690;28;20800;-82
2024/01/03 00:39:28;;;;;;;0.40;0.30;;;7.10;99.90;;;;;;5075562;28;20457;-82
2024/01/03 00:41:56;;;;;;;0.30;0.30;;;7.00;99.90;;;;;;5075105;28;20453;-82
2024/01/03 00:44:22;;;;;;;0.30;0.30;;;7.10;99.90;;;;;;5075813;28;20483;-82
2024/01/03 00:46:50;;;;;;;0.30;0.30;;;7.20;99.90;;;;;;5074988;28;20484;-82
2024/01/03 00:49:17;;;;;;;3.63;0.30;;;7.20;99.90;;;;;;5075318;28;20978;-82
2024/01/03 00:51:48;;;;;;;0.30;0.20;;;7.30;99.90;;;;;;5075723;28;20433;-82
2024/01/03 00:54:16;;;;;;;0.40;0.30;;;7.30;99.90;;;;;;5075551;28;20430;-82
2024/01/03 00:56:45;;;;;;;0.30;0.30;;;7.40;99.90;;;;;;5075239;28;20441;-82
2024/01/03 00:59:12;;;;;;;0.30;0.30;;;7.50;99.90;;;;;;5075666;28;20468;-82
2024/01/03 01:01:40;;;;;;;0.63;0.30;;;7.50;99.90;;;;;;5075695;28;20813;-82
2024/01/03 01:04:07;;;;;;;0.30;0.30;;;7.50;99.90;;;;;;5075562;28;20479;-82
2024/01/03 01:06:34;;;;;;;0.40;0.40;;;7.50;99.90;;;;;;5075218;28;20480;-82
2024/01/03 01:09:04;;;;;;;0.37;0.37;;;7.50;99.90;;;;;;5076323;28;20852;-82
2024/01/03 01:11:30;;;;;;;0.30;0.20;;;7.50;99.90;;;;;;5075812;28;20456;-82
2024/01/03 01:13:58;;;;;;;0.30;0.30;;;7.40;99.90;;;;;;5075547;28;20810;-82
2024/01/03 01:16:25;;;;;;;0.30;0.30;;;7.30;99.90;;;;;;5075530;28;20445;-82
2024/01/03 01:18:52;;;;;;;0.60;0.40;;;7.30;99.90;;;;;;5075728;28;20468;-82
2024/01/03 01:21:19;;;;;;;0.40;0.40;;;7.20;99.90;;;;;;5079548;28;20434;-83
2024/01/03 01:23:46;;;;;;;0.97;0.27;;;7.10;99.90;;;;;;5079104;28;20449;-82
2024/01/03 01:26:12;;;;;;;0.30;0.30;;;7.10;99.90;;;;;;5078523;28;20487;-82
2024/01/03 01:28:39;;;;;;;0.33;0.33;;;7.10;99.90;;;;;;5081122;28;20460;-82
2024/01/03 01:31:08;;;;;;;11.83;0.57;;;7.10;99.90;;;;;;5077519;28;20445;-82
2024/01/03 01:33:34;;;;;;;0.30;0.30;;;7.00;99.90;;;;;;5075397;28;20498;-82
2024/01/03 01:36:01;;;;;;;2.33;0.43;;;7.00;99.90;;;;;;5073864;28;20448;-83
2024/01/03 01:38:28;;;;;;;0.47;0.47;;;7.00;99.90;;;;;;5075463;28;21005;-82
2024/01/03 01:40:54;;;;;;;0.87;0.30;;;7.00;99.90;;;;;;5075726;28;20453;-82
2024/01/03 01:43:21;;;;;;;0.30;0.30;;;7.10;99.90;;;;;;5075276;28;20429;-82
2024/01/03 01:45:48;;;;;;;0.97;0.67;;;7.20;99.90;;;;;;5075292;28;20429;-82
2024/01/03 01:48:18;;;;;;;0.30;0.30;;;7.20;99.90;;;;;;5074616;28;20499;-82
2024/01/03 01:50:46;;;;;;;0.30;0.30;;;7.20;99.90;;;;;;5075472;28;20452;-82
2024/01/03 01:53:14;;;;;;;0.30;0.30;;;7.20;99.90;;;;;;5078045;28;20934;-82
2024/01/03 01:55:41;;;;;;;0.30;0.30;;;7.20;99.90;;;;;;5080053;28;20452;-82
2024/01/03 01:58:09;;;;;;;0.30;0.30;;;7.30;99.90;;;;;;5080319;28;20469;-82
2024/01/03 02:00:37;;;;;;;0.30;0.30;;;7.30;99.90;;;;;;5080507;28;20995;-82
2024/01/03 02:03:04;;;;;;;0.57;0.30;;;7.40;99.90;;;;;;5080187;28;20447;-83
2024/01/03 02:05:34;;;;;;;0.30;0.20;;;7.30;99.90;;;;;;5079904;28;20480;-82
2024/01/03 02:08:00;;;;;;;0.30;0.27;;;7.30;99.90;;;;;;5080532;28;20488;-82
2024/01/03 02:10:27;;;;;;;0.40;0.40;;;7.30;99.90;;;;;;5080312;28;20448;-82
2024/01/03 02:12:54;;;;;;;0.30;0.30;;;7.30;99.90;;;;;;5080643;28;20448;-82
2024/01/03 02:15:23;;;;;;;0.40;0.30;;;7.20;99.90;;;;;;5080038;28;20433;-82
2024/01/03 02:17:50;;;;;;;0.30;0.20;;;7.10;99.90;;;;;;5095642;28;20528;-82
2024/01/03 02:20:17;;;;;;;0.30;0.30;;;7.00;99.90;;;;;;5098696;28;20444;-82
2024/01/03 02:22:45;;;;;;;0.30;0.30;;;6.90;99.90;;;;;;5098919;28;20413;-82
2024/01/03 02:25:12;;;;;;;0.30;0.20;;;6.90;99.90;;;;;;5098701;28;20429;-82
2024/01/03 02:27:39;;;;;;;0.30;0.30;;;6.90;99.90;;;;;;5095933;28;20487;-82
2024/01/03 02:30:08;;;;;;;0.30;0.20;;;6.90;99.90;;;;;;5086860;28;20444;-83
2024/01/03 02:32:35;;;;;;;0.30;0.27;;;7.00;99.90;;;;;;5086409;28;20445;-82
2024/01/03 02:35:02;;;;;;;0.30;0.20;;;7.00;99.90;;;;;;5084996;28;20445;-82
2024/01/03 02:37:29;;;;;;;0.30;0.30;;;7.00;99.90;;;;;;5084289;28;20461;-82
2024/01/03 02:39:57;;;;;;;0.33;0.30;;;7.00;99.90;;;;;;5084195;28;20440;-83
2024/01/03 02:42:23;;;;;;;0.30;0.30;;;7.10;99.90;;;;;;5084279;28;20453;-82
2024/01/03 02:44:50;;;;;;;0.30;0.20;;;7.10;99.90;;;;;;5083060;28;20464;-82
2024/01/03 02:47:17;;;;;;;0.30;0.30;;;7.10;99.90;;;;;;5083768;28;20484;-82
2024/01/03 02:49:44;;;;;;;0.30;0.20;;;7.10;99.90;;;;;;5083361;28;20969;-82
2024/01/03 02:52:10;;;;;;;0.30;0.20;;;7.20;99.90;;;;;;5083319;28;20436;-82
2024/01/03 02:54:37;;;;;;;0.30;0.30;;;7.30;99.90;;;;;;5082863;28;20437;-82
2024/01/03 02:57:05;;;;;;;0.30;0.20;;;7.30;99.90;;;;;;5082810;28;20441;-81
2024/01/03 02:59:34;;;;;;;0.30;0.30;;;7.30;99.90;;;;;;5082779;28;20452;-82
2024/01/03 03:02:01;;;;;;;0.30;0.30;;;7.40;99.90;;;;;;5083399;28;20536;-82
2024/01/03 03:04:27;;;;;;;0.30;0.30;;;7.40;99.90;;;;;;5082253;28;20441;-82
2024/01/03 03:06:54;;;;;;;2.23;0.40;;;7.40;99.90;;;;;;5082232;28;20488;-82
2024/01/03 03:09:21;;;;;;;0.30;0.30;;;7.40;99.90;;;;;;5082590;28;20476;-82
2024/01/03 03:11:48;;;;;;;0.30;0.30;;;7.40;99.90;;;;;;5081818;28;20475;-82
2024/01/03 03:14:16;;;;;;;0.30;0.30;;;7.40;99.90;;;;;;5081946;28;20456;-82
2024/01/03 03:16:43;;;;;;;0.30;0.30;;;7.40;99.90;;;;;;5082818;28;20466;-82
2024/01/03 03:19:09;;;;;;;0.30;0.30;;;7.40;99.90;;;;;;5082248;28;20460;-82
2024/01/03 03:21:36;;;;;;;0.30;0.30;;;7.40;99.90;;;;;;5082014;28;20808;-82
2024/01/03 03:24:04;;;;;;;0.30;0.30;;;7.40;99.90;;;;;;5081593;28;20446;-82
2024/01/03 03:26:31;;;;;;;2.43;0.30;;;7.40;99.90;;;;;;5081520;28;20433;-82
2024/01/03 03:28:58;;;;;;;0.30;0.20;;;7.40;99.90;;;;;;5080974;28;20986;-82
2024/01/03 03:31:26;;;;;;;0.30;0.30;;;7.40;99.90;;;;;;5081013;28;20440;-82
2024/01/03 03:33:53;;;;;;;0.30;0.30;;;7.30;99.90;;;;;;5080629;28;20437;-82
2024/01/03 03:36:20;;;;;;;0.30;0.30;;;7.30;99.90;;;;;;5080467;28;20452;-82
2024/01/03 03:38:47;;;;;;;0.40;0.40;;;7.20;99.90;;;;;;5080752;28;20463;-82
2024/01/03 03:41:14;;;;;;;0.50;0.37;;;7.10;99.90;;;;;;5081937;28;20440;-82
2024/01/03 03:43:41;;;;;;;0.30;0.30;;;7.10;99.90;;;;;;5078892;28;20844;-82
2024/01/03 03:46:08;;;;;;;3.60;0.37;;;7.00;99.90;;;;;;5078798;28;20945;-82
2024/01/03 03:48:36;;;;;;;0.30;0.30;;;6.90;99.90;;;;;;5078875;28;21013;-82
2024/01/03 03:51:04;;;;;;;0.30;0.30;;;6.90;99.90;;;;;;5078725;28;20441;-81
2024/01/03 03:53:31;;;;;;;0.50;0.40;;;6.90;99.90;;;;;;5077720;28;20434;-82
2024/01/03 03:55:57;;;;;;;0.30;0.30;;;6.90;99.90;;;;;;5077254;28;20438;-82
2024/01/03 03:58:24;;;;;;;0.60;0.30;;;6.80;99.90;;;;;;5077625;28;20465;-82
2024/01/03 04:00:51;;;;;;;1.60;0.40;;;6.80;99.90;;;;;;5078381;28;20440;-82
2024/01/03 04:03:18;;;;;;;0.47;0.27;;;6.80;99.90;;;;;;5077449;28;20444;-82
2024/01/03 04:05:46;;;;;;;1.00;0.40;;;6.70;99.90;;;;;;5077606;28;20480;-82
2024/01/03 04:08:12;;;;;;;1.33;0.40;;;6.70;99.90;;;;;;5077716;28;20488;-82
2024/01/03 04:10:39;;;;;;;0.30;0.30;;;6.70;99.90;;;;;;5077837;28;20445;-82
2024/01/03 04:13:06;;;;;;;0.30;0.30;;;6.60;99.90;;;;;;5077974;28;20445;-82
2024/01/03 04:15:34;;;;;;;0.67;0.30;;;6.60;99.90;;;;;;5076954;28;20448;-82
2024/01/03 04:18:03;;;;;;;2.40;0.30;;;6.50;99.90;;;;;;5076665;28;20995;-82
2024/01/03 04:20:30;;;;;;;0.93;0.40;;;6.50;99.90;;;;;;5076591;28;20437;-83
2024/01/03 04:22:58;;;;;;;0.30;0.30;;;6.50;99.90;;;;;;5076743;28;20433;-82
2024/01/03 04:25:25;;;;;;;0.30;0.30;;;6.50;99.90;;;;;;5077578;28;20437;-82
2024/01/03 04:27:52;;;;;;;0.40;0.37;;;6.50;99.90;;;;;;5076828;28;20495;-82
2024/01/03 04:30:18;;;;;;;0.80;0.33;;;6.50;99.90;;;;;;5076760;28;20464;-82
2024/01/03 04:32:45;;;;;;;0.63;0.40;;;6.40;99.90;;;;;;5078353;28;20441;-81
2024/01/03 04:35:12;;;;;;;0.30;0.30;;;6.40;99.90;;;;;;5077141;28;20440;-82
2024/01/03 04:37:39;;;;;;;0.60;0.47;;;6.40;99.90;;;;;;5077052;28;20843;-82
2024/01/03 04:40:08;;;;;;;0.40;0.40;;;6.40;99.90;;;;;;5076577;28;20544;-82
2024/01/03 04:42:35;;;;;;;7.30;0.50;;;6.40;99.90;;;;;;5076735;28;20441;-82
2024/01/03 04:45:02;;;;;;;0.30;0.30;;;6.40;99.90;;;;;;5076824;28;21021;-82
2024/01/03 04:47:28;;;;;;;1.40;0.33;;;6.40;99.90;;;;;;5076403;28;21027;-81
2024/01/03 04:49:55;;;;;;;0.30;0.30;;;6.30;99.90;;;;;;5077003;28;20440;-82
2024/01/03 04:52:22;;;;;;;0.37;0.37;;;6.30;99.90;;;;;;5077923;28;20823;-82
2024/01/03 04:54:48;;;;;;;0.30;0.30;;;6.30;99.90;;;;;;5077481;28;20455;-82
2024/01/03 04:57:16;;;;;;;0.30;0.30;;;6.30;99.90;;;;;;5077410;28;20447;-82
2024/01/03 04:59:43;;;;;;;0.30;0.30;;;6.40;99.90;;;;;;5077749;28;20452;-82
2024/01/03 05:02:10;;;;;;;0.60;0.50;;;6.40;99.90;;;;;;5077090;28;20437;-82
2024/01/03 05:04:36;;;;;;;0.30;0.30;;;6.40;99.90;;;;;;5076947;28;20444;-82
2024/01/03 05:07:03;;;;;;;0.30;0.30;;;6.40;99.90;;;;;;5077207;28;20441;-82
2024/01/03 05:09:34;;;;;;;0.40;0.30;;;6.50;99.90;;;;;;5079245;28;20452;-82
2024/01/03 05:12:02;;;;;;;2.20;0.50;;;6.50;99.90;;;;;;5079064;28;20441;-82
2024/01/03 05:14:30;;;;;;;0.40;0.30;;;6.50;99.90;;;;;;5077887;28;20449;-82
2024/01/03 05:16:57;;;;;;;0.30;0.20;;;6.60;99.90;;;;;;5076931;28;20460;-83
2024/01/03 05:19:24;;;;;;;0.30;0.20;;;6.60;99.90;;;;;;5077464;28;20469;-82
2024/01/03 05:21:50;;;;;;;0.30;0.20;;;6.60;99.90;;;;;;5076590;28;20453;-82
2024/01/03 05:24:17;;;;;;;1.60;0.50;;;6.60;99.90;;;;;;5078861;28;20449;-82
2024/01/03 05:26:44;;;;;;;0.30;0.27;;;6.60;99.90;;;;;;5079119;28;20930;-82
2024/01/03 05:29:10;;;;;;;2.53;0.30;;;6.60;99.90;;;;;;5081031;28;20484;-82
2024/01/03 05:31:38;;;;;;;0.80;0.53;;;6.60;99.90;;;;;;5082096;28;20441;-82
2024/01/03 05:34:07;;;;;;;0.30;0.30;;;6.60;99.90;;;;;;5081102;28;20960;-82
2024/01/03 05:36:33;;;;;;;0.57;0.57;;;6.60;99.90;;;;;;5081298;28;20535;-82
2024/01/03 05:39:00;;;;;;;0.30;0.30;;;6.60;99.90;;;;;;5080995;28;20456;-82
2024/01/03 05:41:27;;;;;;;0.50;0.50;;;6.60;99.90;;;;;;5080904;28;20814;-82
2024/01/03 05:43:54;;;;;;;0.40;0.37;;;6.60;99.90;;;;;;5080869;28;20458;-82
2024/01/03 05:46:21;;;;;;;0.40;0.30;;;6.70;99.90;;;;;;5080523;28;20459;-82
2024/01/03 05:48:49;;;;;;;0.63;0.30;;;6.60;99.90;;;;;;5082748;28;20476;-82
2024/01/03 05:51:16;;;;;;;0.40;0.40;;;6.60;99.90;;;;;;5082788;28;20445;-82
2024/01/03 05:53:47;;;;;;;0.30;0.30;;;6.60;99.90;;;;;;5078006;28;20440;-82
2024/01/03 05:56:14;;;;;;;0.53;0.53;;;6.70;99.90;;;;;;5077885;28;20443;-82
2024/01/03 05:58:42;;;;;;;0.40;0.30;;;6.80;99.90;;;;;;5077848;28;20518;-82
2024/01/03 06:01:08;;;;;;;0.30;0.30;;;6.80;99.90;;;;;;5078379;28;20470;-82
2024/01/03 06:03:35;;;;;;;0.40;0.40;;;6.90;99.90;;;;;;5078542;28;20452;-82
2024/01/03 06:06:03;;;;;;;0.30;0.30;;;6.90;99.90;;;;;;5077742;28;20476;-82
2024/01/03 06:08:30;;;;;;;0.30;0.30;;;7.00;99.90;;;;;;5077844;28;20492;-82
2024/01/03 06:10:57;;;;;;;11.10;0.53;;;7.00;99.90;;;;;;5078063;28;20440;-82
2024/01/03 06:13:24;;;;;;;0.53;0.53;;;7.00;99.90;;;;;;5077750;28;20806;-82
2024/01/03 06:15:50;;;;;;;0.40;0.30;;;7.00;99.90;;;;;;5077660;28;20440;-82
2024/01/03 06:18:17;;;;;;;0.30;0.30;;;6.90;99.90;;;;;;5077627;28;21001;-82
2024/01/03 06:20:44;;;;;;;0.30;0.20;;;6.90;99.90;;;;;;5078494;28;20451;-82
2024/01/03 06:23:12;;;;;;;0.40;0.30;;;6.80;99.90;;;;;;5079921;28;20449;-82
2024/01/03 06:25:39;;;;;;;1.43;0.30;;;6.80;99.90;;;;;;5078778;28;20518;-82
2024/01/03 06:28:06;;;;;;;1.60;0.70;;;6.80;99.90;;;;;;5077763;28;20481;-82
2024/01/03 06:30:34;;;;;;;0.40;0.30;;;6.70;99.90;;;;;;5079124;28;20444;-82
2024/01/03 06:33:01;;;;;;;0.30;0.30;;;6.70;99.90;;;;;;5080014;28;20488;-82
2024/01/03 06:35:27;;;;;;;0.40;0.30;;;6.70;99.90;;;;;;5079782;28;20452;-82
2024/01/03 06:37:54;;;;;;;2.20;0.50;;;6.70;99.90;;;;;;5078050;28;20453;-82
2024/01/03 06:40:22;;;;;;;0.30;0.20;;;6.70;99.90;;;;;;5078189;28;20441;-82
2024/01/03 06:42:49;;;;;;;0.30;0.30;;;6.70;99.90;;;;;;5078568;28;20463;-82
2024/01/03 06:45:15;;;;;;;0.30;0.30;;;6.70;99.90;;;;;;5079378;28;20441;-82
2024/01/03 06:47:43;;;;;;;0.40;0.40;;;6.80;99.90;;;;;;5080381;28;20477;-82
2024/01/03 06:50:13;;;;;;;0.30;0.20;;;6.80;99.90;;;;;;5079832;28;20449;-83
2024/01/03 06:52:39;;;;;;;0.30;0.30;;;6.90;99.90;;;;;;5079831;28;20544;-83
2024/01/03 06:55:07;;;;;;;0.40;0.30;;;6.90;99.90;;;;;;5080405;28;20436;-82
2024/01/03 06:57:35;;;;;;;0.30;0.20;;;6.90;99.90;;;;;;5080241;28;20472;-82
2024/01/03 07:00:02;;;;;;;0.30;0.30;;;7.00;99.90;;;;;;5080945;28;20448;-82
2024/01/03 07:02:29;;;;;;;2.77;0.33;;;7.00;99.90;;;;;;5081829;28;20429;-83
2024/01/03 07:04:56;;;;;;;0.30;0.20;;;7.10;99.90;;;;;;5080582;28;20480;-82
2024/01/03 07:07:22;;;;;;;0.37;0.30;;;7.10;99.90;;;;;;5079990;28;20460;-82
2024/01/03 07:09:49;;;;;;;2.23;0.50;;;7.10;99.90;;;;;;5080221;28;20872;-82
2024/01/03 07:12:16;;;;;;;2.70;0.40;;;7.10;99.90;;;;;;5081316;28;20449;-82
2024/01/03 07:14:44;;;;;;;0.30;0.30;;;7.10;99.90;;;;;;5081667;28;20445;-82
2024/01/03 07:17:10;;;;;;;0.30;0.30;;;7.10;99.90;;;;;;5081005;28;20439;-82
2024/01/03 07:19:37;;;;;;;0.30;0.30;;;7.10;99.90;;;;;;5080607;28;20444;-82
2024/01/03 07:22:04;;;;;;;0.30;0.30;;;7.10;99.90;;;;;;5080828;28;20445;-82
2024/01/03 07:24:31;;;;;;;0.60;0.37;;;7.10;99.90;;;;;;5081109;28;20433;-82
2024/01/03 07:26:58;;;;;;;0.43;0.43;;;7.20;99.90;;;;;;5080844;28;20453;-82
2024/01/03 07:29:24;;;;;;;0.30;0.30;;;7.20;99.90;;;;;;5080367;28;20483;-82
2024/01/03 07:31:52;;;;;;;0.30;0.30;;;7.20;99.90;;;;;;5080051;28;20444;-82
2024/01/03 07:34:19;;;;;;;0.57;0.30;;;7.10;99.90;;;;;;5080254;28;20444;-82
2024/01/03 07:36:46;;;;;;;0.30;0.30;;;7.20;99.90;;;;;;5080692;28;20441;-82
2024/01/03 07:39:12;;;;;;;0.50;0.30;;;7.20;99.90;;;;;;5080797;28;20464;-82
2024/01/03 07:41:39;;;;;;;0.40;0.40;;;7.30;99.90;;;;;;5079743;28;20448;-82
2024/01/03 07:44:06;;;;;;;0.40;0.40;;;7.40;99.90;;;;;;5083642;28;20444;-82
2024/01/03 07:46:32;;;;;;;0.40;0.30;;;7.40;99.90;;;;;;5088866;28;20441;-82
2024/01/03 07:49:01;;;;;;;0.30;0.20;;;7.40;99.90;;;;;;5087967;28;20481;-82
2024/01/03 07:51:27;;;;;;;0.40;0.30;;;7.40;99.90;;;;;;5081179;28;20437;-83
2024/01/03 07:53:54;;;;;;;0.40;0.30;;;7.40;99.90;;;;;;5081724;28;20448;-82
2024/01/03 07:56:21;;;;;;;0.60;0.30;;;7.40;99.90;;;;;;5081577;28;20933;-82
2024/01/03 07:58:48;;;;;;;0.40;0.30;;;7.50;99.90;;;;;;5088459;28;20532;-81
2024/01/03 08:01:14;;;;;;;0.40;0.30;;;7.50;99.90;;;;;;5076596;28;20448;-82
2024/01/03 08:03:41;;;;;;;4.10;0.40;;;7.60;99.90;;;;;;5077011;28;20441;-82
2024/01/03 08:06:11;;;;;;;0.40;0.30;;;7.70;99.90;;;;;;5076471;28;20476;-81
2024/01/03 08:08:37;;;;;;;0.70;0.30;;;7.70;99.90;;;;;;5077377;28;20496;-82
2024/01/03 08:11:04;;;;;;;2.10;0.40;;;7.80;99.90;;;;;;5078145;28;20445;-82
2024/01/03 08:13:31;;;;;;;0.40;0.30;;;7.80;99.90;;;;;;5077931;28;20440;-82
2024/01/03 08:15:57;;;;;;;1.73;0.43;;;7.90;99.90;;;;;;5079426;28;20444;-82
2024/01/03 08:18:24;;;;;;;1.13;0.47;;;7.90;99.90;;;;;;5080145;28;20463;-83
2024/01/03 08:20:51;;;;;;;1.50;0.40;;;8.10;99.90;;;;;;5079767;28;20815;-83
2024/01/03 08:23:19;;;;;;;0.60;0.30;;;8.20;99.90;;;;;;5079881;28;20437;-82
2024/01/03 08:25:46;;;;;;;0.43;0.30;;;8.20;99.90;;;;;;5080098;28;20462;-82
2024/01/03 08:28:13;;;;;;;0.40;0.30;;;8.30;99.90;;;;;;5078830;28;20986;-82
2024/01/03 08:30:39;;;;;;;0.63;0.30;;;8.40;99.90;;;;;;5079562;28;20448;-82
2024/01/03 08:33:06;;;;;;;0.30;0.30;;;8.50;99.90;;;;;;5078411;28;20456;-81
2024/01/03 08:35:36;;;;;;;0.30;0.30;;;8.60;99.90;;;;;;5078917;28;20535;-82
2024/01/03 08:38:03;;;;;;;0.73;0.50;;;8.60;99.90;;;;;;5079161;28;20982;-82
2024/01/03 08:40:34;;;;;;;0.40;0.40;;;8.60;99.90;;;;;;5079430;28;20433;-82
2024/01/03 08:43:01;;;;;;;0.30;0.20;;;8.50;99.90;;;;;;5080014;28;20460;-82
2024/01/03 08:45:28;;;;;;;0.30;0.30;;;8.40;99.90;;;;;;5080378;28;20444;-82
2024/01/03 08:47:55;;;;;;;0.30;0.30;;;8.30;99.90;;;;;;5079865;28;20482;-82
2024/01/03 08:50:24;;;;;;;0.80;0.40;;;8.30;99.90;;;;;;5079937;28;20488;-82
2024/01/03 08:53:03;;;;;;;0.30;0.30;;;8.30;99.90;;;;;;5080580;28;20942;-82
2024/01/03 08:55:33;;;;;;;0.70;0.60;;;8.20;99.90;;;;;;5080727;28;20429;-82
2024/01/03 08:58:02;;;;;;;0.40;0.30;;;8.20;99.90;;;;;;5080048;28;21008;-82
2024/01/03 09:00:32;;;;;;;0.30;0.30;;;8.10;99.90;;;;;;5081053;28;20508;-82
2024/01/03 09:03:04;;;;;;;0.30;0.30;;;8.10;99.90;;;;;;5081893;28;20433;-82
2024/01/03 09:05:31;;;;;;;0.30;0.30;;;8.00;99.90;;;;;;5080353;28;20477;-82
2024/01/03 09:07:58;;;;;;;0.40;0.30;;;8.00;99.90;;;;;;5080143;28;20857;-82
2024/01/03 09:10:25;;;;;;;2.43;0.53;;;8.00;99.90;;;;;;5080027;28;20526;-82
2024/01/03 09:12:56;;;;;;;1.53;0.33;;;8.10;99.90;;;;;;5078927;28;20445;-82
2024/01/03 09:15:23;;;;;;;0.50;0.30;;;8.20;99.90;;;;;;5079846;28;20438;-82
2024/01/03 09:18:01;;;;;;;0.30;0.30;;;8.30;99.90;;;;;;5080777;28;20464;-82
2024/01/03 09:20:57;;;;;;;0.30;0.30;;;8.40;99.90;;;;;;5080871;28;20425;-82
2024/01/03 09:23:36;;;;;;;0.90;0.73;;;8.50;99.90;;;;;;5080298;28;20505;-82
2024/01/03 09:28:53;;;;;;;0.30;0.30;;;8.80;99.90;;;;;;5060712;28;20495;-82
2024/01/03 09:31:27;;;;;;;0.50;0.50;;;9.00;99.90;;;;;;5079522;28;20425;-82
2024/01/03 09:34:06;;;;;;;0.70;0.33;;;9.00;99.90;;;;;;5079467;28;20437;-82
2024/01/03 09:36:39;;;;;;;0.40;0.30;;;8.90;99.90;;;;;;5079286;28;20436;-82
2024/01/03 09:39:13;;;;;;;0.57;0.40;;;8.90;99.90;;;;;;5078599;28;20457;-82
2024/01/03 09:41:43;;;;;;;0.80;0.30;;;8.80;99.90;;;;;;5078819;28;20453;-82
2024/01/03 09:44:34;;;;;;;0.40;0.30;;;8.80;99.90;;;;;;5078962;28;20429;-82
2024/01/03 09:47:09;;;;;;;8.13;0.70;;;8.80;99.90;;;;;;5078540;28;20429;-82
2024/01/03 09:49:39;;;;;;;0.30;0.23;;;8.80;99.90;;;;;;5078688;28;20465;-82
2024/01/03 09:52:09;;;;;;;0.30;0.30;;;8.70;99.90;;;;;;5078785;28;20532;-82
2024/01/03 09:54:36;;;;;;;0.30;0.30;;;8.60;99.90;;;;;;5079254;28;20425;-83
2024/01/03 09:57:07;;;;;;;0.50;0.40;;;8.50;99.90;;;;;;5079250;28;20449;-82
2024/01/03 09:59:38;;;;;;;0.30;0.20;;;8.50;99.90;;;;;;5078658;28;20445;-82
2024/01/03 10:02:11;;;;;;;0.80;0.37;;;8.70;99.90;;;;;;5079025;28;20422;-82
2024/01/03 10:04:51;;;;;;;0.30;0.30;;;9.00;99.90;;;;;;5079496;28;20422;-82
2024/01/03 10:07:30;;;;;;;0.30;0.30;;;9.20;99.90;;;;;;5079734;28;20425;-82
2024/01/03 10:10:06;;;;;;;2.40;0.40;;;9.20;99.90;;;;;;5080168;28;20452;-82
2024/01/03 10:12:41;;;;;;;0.40;0.30;;;9.10;99.90;;;;;;5076439;28;20416;-82
2024/01/03 10:15:43;;;;;;;0.30;0.30;;;9.00;99.90;;;;;;5079988;28;20481;-82
2024/01/03 10:18:11;;;;;;;0.63;0.40;;;8.80;99.90;;;;;;5074011;28;20563;-82
2024/01/03 10:20:51;;;;;;;1.60;0.73;;;8.80;99.90;;;;;;5081108;28;20437;-82
2024/01/03 10:26:25;;;;;;;1.33;0.43;;;8.90;99.90;;;;;;5079855;28;20459;-81
2024/01/03 10:29:19;;;;;;;0.90;0.30;;;8.70;99.90;;;;;;5081277;28;20457;-82
2024/01/03 10:31:59;;;;;;;0.97;0.30;;;8.70;99.90;;;;;;5081001;28;20441;-82
2024/01/03 10:34:30;;;;;;;0.40;0.30;;;8.60;99.90;;;;;;5080204;28;20921;-82
2024/01/03 10:36:58;;;;;;;1.07;0.30;;;8.70;99.90;;;;;;5080026;28;20517;-82
2024/01/03 10:39:26;;;;;;;15.73;0.40;;;8.70;99.90;;;;;;5078810;28;20472;-83
2024/01/03 10:41:54;;;;;;;0.30;0.20;;;8.80;99.90;;;;;;5079390;28;20436;-83
2024/01/03 10:44:24;;;;;;;0.30;0.20;;;8.90;99.90;;;;;;5079185;28;20472;-82
2024/01/03 10:46:54;;;;;;;0.30;0.30;;;9.00;99.90;;;;;;5080894;28;20433;-82
2024/01/03 10:49:25;;;;;;;0.30;0.30;;;9.10;99.90;;;;;;5080479;28;20485;-82
2024/01/03 10:52:03;;;;;;;0.30;0.30;;;9.10;99.90;;;;;;5081297;28;20429;-83
2024/01/03 10:54:40;;;;;;;0.30;0.30;;;9.20;99.90;;;;;;5083360;28;20448;-82
2024/01/03 10:57:13;;;;;;;0.30;0.27;;;9.30;99.90;;;;;;5084373;28;20439;-82
2024/01/03 11:00:07;;;;;;;0.70;0.30;;;9.40;99.90;;;;;;5082790;28;20437;-82
2024/01/03 11:02:43;;;;;;;0.30;0.30;;;9.60;99.90;;;;;;5083096;28;20485;-82
2024/01/03 11:05:39;;;;;;;0.50;0.43;;;9.60;99.90;;;;;;5082182;28;20484;-82
2024/01/03 11:08:15;;;;;;;3.27;0.30;;;9.50;99.90;;;;;;5082452;28;20503;-82
2024/01/03 11:10:54;;;;;;;0.97;0.50;;;9.50;99.90;;;;;;5082498;28;20472;-83
2024/01/03 11:13:35;;;;;;;0.30;0.20;;;9.60;99.90;;;;;;5082135;28;20429;-82
2024/01/03 11:16:28;;;;;;;0.67;0.40;;;9.50;99.90;;;;;;5081022;28;20430;-82
2024/01/03 11:18:57;;;;;;;0.30;0.20;;;9.50;99.90;;;;;;5081124;28;20473;-82
2024/01/03 11:21:52;;;;;;;0.70;0.33;;;9.50;99.90;;;;;;5081136;28;20445;-82
2024/01/03 11:24:56;;;;;;;0.30;0.30;;;9.50;99.90;;;;;;5081630;28;20494;-82
2024/01/03 11:27:31;;;;;;;0.30;0.27;;;9.50;99.90;;;;;;5081805;28;20902;-83
2024/01/03 11:30:09;;;;;;;0.30;0.27;;;9.50;99.90;;;;;;5080536;28;20485;-82
2024/01/03 11:32:39;;;;;;;0.30;0.30;;;9.50;99.90;;;;;;5080146;28;20491;-81
2024/01/03 11:35:17;;;;;;;0.40;0.30;;;9.50;99.90;;;;;;5080664;28;20449;-82
2024/01/03 11:37:56;;;;;;;;;;;;;;;;;;;;;
2024/01/03 11:40:24;;;;;;;0.30;0.30;;;9.50;99.90;;;;;;5080265;28;20528;-82
2024/01/03 11:43:08;;;;;;;2.20;0.60;;;9.70;99.90;;;;;;5079806;28;20445;-83
2024/01/03 11:45:37;;;;;;;0.30;0.30;;;9.90;99.90;;;;;;5077087;28;20531;-81
2024/01/03 11:48:15;;;;;;;0.30;0.20;;;10.10;99.90;;;;;;5076334;28;20985;-82
2024/01/03 11:50:43;;;;;;;0.40;0.30;;;10.20;99.90;;;;;;5077468;28;20896;-82
2024/01/03 11:53:11;;;;;;;0.47;0.30;;;10.20;99.90;;;;;;5077211;28;20421;-82
2024/01/03 11:55:51;;;;;;;1.70;0.30;;;10.10;99.90;;;;;;5077024;28;20472;-82
2024/01/03 11:58:29;;;;;;;0.80;0.40;;;10.00;99.90;;;;;;5077688;28;20465;-82
2024/01/03 12:01:15;;;;;;;0.40;0.40;;;10.00;99.90;;;;;;5077033;28;20432;-82
2024/01/03 12:03:42;;;;;;;0.30;0.30;;;10.10;99.90;;;;;;5077761;28;20846;-81
2024/01/03 12:06:10;;;;;;;2.10;0.33;;;10.20;99.90;;;;;;5076895;28;20477;-81
2024/01/03 12:08:44;;;;;;;0.47;0.30;;;10.20;99.90;;;;;;5077449;28;20456;-82
2024/01/03 12:11:14;;;;;;;1.53;0.30;;;10.10;99.90;;;;;;5077190;28;20834;-81
2024/01/03 12:13:46;;;;;;;0.40;0.33;;;10.00;99.90;;;;;;5077076;28;20414;-82
2024/01/03 12:16:13;;;;;;;1.80;0.40;;;9.90;99.90;;;;;;5076455;28;20440;-81
2024/01/03 12:19:06;;;;;;;0.30;0.30;;;9.90;99.90;;;;;;5081412;28;20807;-81
2024/01/03 12:21:35;;;;;;;0.40;0.30;;;9.80;99.90;;;;;;5075732;28;20490;-81
2024/01/03 12:24:03;;;;;;;0.40;0.30;;;10.00;99.90;;;;;;5079556;28;20455;-81
2024/01/03 12:26:45;;;;;;;0.50;0.37;;;10.00;99.90;;;;;;5077444;28;20448;-81
2024/01/03 12:29:19;;;;;;;0.40;0.37;;;10.10;99.90;;;;;;5077155;28;20473;-81
2024/01/03 12:31:49;;;;;;;0.30;0.30;;;10.10;99.90;;;;;;5077019;28;20546;-81
2024/01/03 12:34:19;;;;;;;0.40;0.30;;;10.10;99.90;;;;;;5076354;28;20437;-81
2024/01/03 12:36:47;;;;;;;0.30;0.20;;;10.00;99.90;;;;;;5076618;28;20452;-82
2024/01/03 12:39:15;;;;;;;0.30;0.20;;;10.10;99.90;;;;;;5076858;28;20526;-81
2024/01/03 12:41:44;;;;;;;0.30;0.20;;;10.10;99.90;;;;;;5076324;28;20952;-81
2024/01/03 12:44:22;;;;;;;0.30;0.30;;;10.20;99.90;;;;;;5078863;28;20456;-82
2024/01/03 12:47:30;;;;;;;1.33;0.40;;;10.10;99.90;;;;;;5078300;28;20441;-81
2024/01/03 12:50:43;;;;;;;3.10;0.40;;;10.00;99.90;;;;;;5072741;28;20579;-82
2024/01/03 12:53:14;;;;;;;0.30;0.30;;;9.80;99.90;;;;;;5077331;28;20445;-82
2024/01/03 12:55:41;;;;;;;0.40;0.30;;;9.60;99.90;;;;;;5077619;28;20499;-82
2024/01/03 12:58:15;;;;;;;0.30;0.27;;;9.60;99.90;;;;;;5077043;28;20461;-82
2024/01/03 13:00:44;;;;;;;0.43;0.30;;;9.50;99.90;;;;;;5077112;28;20425;-82
2024/01/03 13:03:13;;;;;;;0.40;0.30;;;9.50;99.90;;;;;;5077339;28;20465;-82
2024/01/03 13:05:40;;;;;;;0.30;0.20;;;9.50;99.90;;;;;;5076185;28;20500;-82
2024/01/03 13:08:08;;;;;;;0.30;0.30;;;9.50;99.90;;;;;;5076545;28;20472;-82
2024/01/03 13:10:37;;;;;;;1.90;0.33;;;9.50;99.90;;;;;;5076996;28;20530;-82
2024/01/03 13:13:16;;;;;;;0.30;0.30;;;9.60;99.90;;;;;;5076665;28;20445;-82
2024/01/03 13:15:51;;;;;;;0.60;0.30;;;9.70;99.90;;;;;;5076584;28;20434;-82
2024/01/03 13:18:21;;;;;;;0.40;0.30;;;9.70;99.90;;;;;;5076469;28;20461;-81